Time;durP1;ratioP1;P1;durP2;ratioP2;P2;SDS_P1;SDS_P2;PMS_P1;PMS_P2;Temp;Humidity;BMP_temperature;BMP_pressure;BME280_temperature;BME280_humidity;BME280_pressure;Samples;Min_cycle;Max_cycle;Signal;HPM_P1;HPM_P2
2023/10/07 00:00:16;;;;;;;5.63;5.13;;;;;;;16.83;77.94;100897.66;4979928;28;20594;-84
2023/10/07 00:02:43;;;;;;;7.77;5.50;;;;;;;16.67;78.72;100889.44;4980307;28;20267;-81
2023/10/07 00:05:15;;;;;;;8.97;5.83;;;;;;;16.83;78.55;100888.91;4980278;28;20231;-82
2023/10/07 00:07:43;;;;;;;8.47;6.63;;;;;;;16.54;79.12;100892.56;4979543;28;20204;-81
2023/10/07 00:10:14;;;;;;;7.00;5.23;;;;;;;16.73;78.97;100871.66;4980811;28;20212;-82
2023/10/07 00:12:42;;;;;;;6.87;4.83;;;;;;;16.85;78.57;100881.78;4980252;28;20306;-82
2023/10/07 00:15:11;;;;;;;10.33;6.00;;;;;;;16.78;78.67;100883.75;4980246;28;20263;-84
2023/10/07 00:17:42;;;;;;;6.40;5.00;;;;;;;16.83;78.54;100881.00;4988518;28;20220;-82
2023/10/07 00:20:10;;;;;;;7.50;5.33;;;;;;;16.68;79.28;100872.69;4990342;28;20220;-84
2023/10/07 00:22:48;;;;;;;10.40;4.73;;;;;;;16.79;79.18;100868.81;4979965;28;20204;-82
2023/10/07 00:25:19;;;;;;;7.60;4.90;;;;;;;16.83;78.90;100873.94;4980518;28;20702;-82
2023/10/07 00:27:48;;;;;;;6.50;4.83;;;;;;;16.96;78.37;100876.94;4979679;28;20208;-83
2023/10/07 00:30:16;;;;;;;7.17;4.50;;;;;;;16.99;77.87;100895.31;4978248;28;20626;-82
2023/10/07 00:32:45;;;;;;;7.07;4.50;;;;;;;16.95;77.84;100909.53;4978075;28;20640;-83
2023/10/07 00:35:14;;;;;;;5.80;5.13;;;;;;;17.00;77.78;100914.59;4978574;28;20239;-80
2023/10/07 00:37:43;;;;;;;8.10;5.50;;;;;;;16.90;77.97;100921.16;4978883;28;20217;-82
2023/10/07 00:40:14;;;;;;;7.47;4.17;;;;;;;16.92;78.03;100917.53;4978624;28;20738;-81
2023/10/07 00:42:44;;;;;;;5.60;4.37;;;;;;;16.91;78.14;100905.28;4978540;28;20305;-84
2023/10/07 00:45:15;;;;;;;7.57;5.00;;;;;;;16.96;78.18;100911.22;4977981;28;20268;-83
2023/10/07 00:47:42;;;;;;;6.00;4.17;;;;;;;17.04;77.83;100913.56;4977883;28;20222;-83
2023/10/07 00:50:10;;;;;;;5.77;4.57;;;;;;;16.96;77.81;100918.28;4978019;28;20205;-83
2023/10/07 00:52:52;;;;;;;5.60;4.60;;;;;;;16.94;77.90;100933.31;4978404;28;20209;-83
2023/10/07 00:55:28;;;;;;;4.33;3.87;;;;;;;17.02;77.93;100912.78;4977782;28;20227;-84
2023/10/07 00:58:04;;;;;;;8.33;4.40;;;;;;;16.87;78.21;100920.34;4978127;28;20214;-83
2023/10/07 01:00:42;;;;;;;5.77;4.80;;;;;;;16.82;78.38;100909.09;4978734;28;20676;-84
2023/10/07 01:03:20;;;;;;;5.73;4.57;;;;;;;16.85;78.15;100906.38;4977554;28;20213;-84
2023/10/07 01:06:09;;;;;;;5.57;4.47;;;;;;;16.63;79.11;100906.28;4977734;28;20687;-84
2023/10/07 01:08:38;;;;;;;5.90;4.67;;;;;;;16.75;79.09;100888.25;4977539;28;20663;-83
2023/10/07 01:11:10;;;;;;;5.33;4.80;;;;;;;16.69;79.07;100881.47;4977079;28;20228;-82
2023/10/07 01:13:45;;;;;;;7.47;5.53;;;;;;;16.53;79.69;100872.38;4977077;28;20239;-83
2023/10/07 01:16:19;;;;;;;7.17;4.60;;;;;;;16.74;79.15;100873.38;4977317;28;20227;-83
2023/10/07 01:18:46;;;;;;;6.67;5.00;;;;;;;16.80;78.79;100884.53;4977869;28;20645;-84
2023/10/07 01:21:31;;;;;;;9.30;5.67;;;;;;;16.87;78.38;100888.72;4976573;28;20277;-83
2023/10/07 01:23:59;;;;;;;7.87;5.63;;;;;;;16.80;78.58;100884.53;4976844;28;20213;-83
2023/10/07 01:26:30;;;;;;;5.50;5.00;;;;;;;16.85;78.59;100876.50;4976873;28;20303;-83
2023/10/07 01:29:11;;;;;;;8.03;4.80;;;;;;;16.83;79.12;100875.72;4977037;28;20216;-83
2023/10/07 01:31:41;;;;;;;5.20;4.63;;;;;;;16.90;78.41;100876.31;4977793;28;20228;-84
2023/10/07 01:34:13;;;;;;;8.07;5.43;;;;;;;16.98;78.12;100877.75;4977274;28;20303;-83
2023/10/07 01:36:41;;;;;;;6.87;5.30;;;;;;;17.04;77.78;100887.19;4976779;28;20240;-83
2023/10/07 01:39:10;;;;;;;5.60;5.00;;;;;;;17.04;77.79;100892.47;4976258;28;20681;-84
2023/10/07 01:41:39;;;;;;;5.07;4.57;;;;;;;17.03;77.67;100904.81;4976496;28;20323;-83
2023/10/07 01:44:06;;;;;;;7.10;4.93;;;;;;;17.05;77.98;100894.22;4976294;28;20258;-84
2023/10/07 01:46:37;;;;;;;5.87;4.73;;;;;;;17.06;77.86;100891.47;4976714;28;20214;-84
2023/10/07 01:49:06;;;;;;;6.83;5.30;;;;;;;17.00;78.08;100899.63;4976581;28;20239;-82
2023/10/07 01:51:33;;;;;;;7.17;5.73;;;;;;;16.99;78.26;100892.66;4976801;28;20228;-83
2023/10/07 01:54:03;;;;;;;5.30;4.80;;;;;;;16.97;78.33;100889.22;4976340;28;20284;-81
2023/10/07 01:56:32;;;;;;;5.83;4.57;;;;;;;17.01;78.14;100889.97;4976447;28;20229;-82
2023/10/07 01:59:04;;;;;;;13.50;5.10;;;;;;;17.03;77.88;100886.34;4977135;28;20223;-84
2023/10/07 02:01:31;;;;;;;8.53;4.70;;;;;;;16.86;78.63;100886.97;4975927;28;20731;-81
2023/10/07 02:03:59;;;;;;;8.97;5.03;;;;;;;16.96;78.72;100870.81;4976759;28;20198;-83
2023/10/07 02:06:26;;;;;;;8.23;4.77;;;;;;;16.95;78.59;100872.59;4976688;28;20219;-81
2023/10/07 02:08:54;;;;;;;7.27;5.27;;;;;;;16.99;78.56;100858.38;4976957;28;20222;-84
2023/10/07 02:11:28;;;;;;;6.73;4.77;;;;;;;17.06;78.12;100870.38;4976551;28;20260;-84
2023/10/07 02:13:56;;;;;;;6.83;4.53;;;;;;;17.09;77.86;100877.34;4976644;28;20734;-84
2023/10/07 02:16:25;;;;;;;5.97;4.27;;;;;;;17.10;77.70;100886.97;4976483;28;20276;-83
2023/10/07 02:18:52;;;;;;;7.33;4.53;;;;;;;17.07;78.09;100884.47;4976431;28;20208;-83
2023/10/07 02:21:20;;;;;;;7.83;4.80;;;;;;;17.11;78.26;100891.31;4975839;28;20239;-83
2023/10/07 02:23:49;;;;;;;6.40;4.50;;;;;;;17.04;77.71;100897.75;4976782;28;20263;-82
2023/10/07 02:26:19;;;;;;;19.77;5.63;;;;;;;16.98;78.00;100896.19;4976695;28;20210;-82
2023/10/07 02:28:48;;;;;;;5.67;4.20;;;;;;;17.01;78.28;100887.34;4976636;28;20212;-82
2023/10/07 02:31:19;;;;;;;6.07;4.00;;;;;;;17.05;78.20;100887.16;4976808;28;20228;-84
2023/10/07 02:33:46;;;;;;;6.00;4.40;;;;;;;16.98;78.84;100883.00;4976191;28;20212;-82
2023/10/07 02:36:28;;;;;;;5.60;4.23;;;;;;;17.03;78.52;100869.66;4975823;28;20239;-83
2023/10/07 02:38:55;;;;;;;9.30;5.00;;;;;;;17.02;78.42;100881.97;4977249;28;20212;-83
2023/10/07 02:41:21;;;;;;;4.93;4.17;;;;;;;17.09;78.24;100887.03;4976279;28;20251;-83
2023/10/07 02:43:49;;;;;;;7.23;5.07;;;;;;;17.01;78.49;100882.91;4976473;28;20305;-84
2023/10/07 02:46:34;;;;;;;7.93;4.93;;;;;;;16.95;78.75;100869.13;4976452;28;20215;-83
2023/10/07 02:49:10;;;;;;;5.47;4.17;;;;;;;17.07;78.25;100871.25;4976463;28;20213;-83
2023/10/07 02:51:39;;;;;;;7.03;4.97;;;;;;;17.03;78.07;100882.84;4976579;28;20240;-83
2023/10/07 02:54:07;;;;;;;4.63;4.10;;;;;;;16.98;78.10;100890.94;4976186;28;20248;-82
2023/10/07 02:56:43;;;;;;;5.30;4.80;;;;;;;17.02;78.38;100886.41;4976158;28;20707;-84
2023/10/07 02:59:23;;;;;;;6.20;4.37;;;;;;;17.01;78.07;100877.63;4976871;28;20805;-84
2023/10/07 03:02:12;;;;;;;7.03;4.40;;;;;;;17.12;77.90;100871.06;4976370;28;20238;-83
2023/10/07 03:04:41;;;;;;;4.43;3.87;;;;;;;16.96;78.44;100863.75;4976315;28;20279;-83
2023/10/07 03:07:13;;;;;;;6.13;4.50;;;;;;;17.04;78.02;100859.03;4976871;28;20215;-84
2023/10/07 03:09:42;;;;;;;5.73;3.80;;;;;;;17.04;77.83;100860.81;4976733;28;20268;-84
2023/10/07 03:12:12;;;;;;;7.13;4.50;;;;;;;16.99;77.81;100861.00;4976139;28;20293;-84
2023/10/07 03:14:39;;;;;;;6.37;4.87;;;;;;;16.96;78.32;100863.75;4980002;28;20212;-82
2023/10/07 03:17:17;;;;;;;7.43;4.70;;;;;;;17.01;78.15;100856.53;4980633;28;20294;-82
2023/10/07 03:19:52;;;;;;;4.83;4.23;;;;;;;17.06;77.83;100864.25;4980662;28;20211;-83
2023/10/07 03:22:18;;;;;;;5.10;4.27;;;;;;;16.99;77.65;100878.63;4980061;28;20319;-83
2023/10/07 03:24:54;;;;;;;5.90;4.30;;;;;;;17.00;77.81;100875.91;4980480;28;20214;-84
2023/10/07 03:27:26;;;;;;;4.60;4.00;;;;;;;16.85;77.76;100885.28;4979619;28;20267;-83
2023/10/07 03:30:12;;;;;;;5.70;4.40;;;;;;;16.93;77.92;100873.59;4980859;28;20220;-82
2023/10/07 03:32:56;;;;;;;7.33;4.70;;;;;;;16.83;77.94;100865.16;4980354;28;20212;-83
2023/10/07 03:38:12;;;;;;;4.90;4.50;;;;;;;16.90;78.12;100848.16;4965555;28;20215;-83
2023/10/07 03:40:38;;;;;;;6.43;5.07;;;;;;;16.85;78.27;100848.34;4982288;28;20238;-81
2023/10/07 03:43:08;;;;;;;4.87;4.40;;;;;;;16.83;78.39;100846.72;4989772;28;20208;-83
2023/10/07 03:45:36;;;;;;;5.37;4.83;;;;;;;16.73;78.32;100867.25;4990517;28;20192;-80
2023/10/07 03:48:22;;;;;;;7.83;4.47;;;;;;;16.64;79.14;100844.72;4997801;28;20193;-82
2023/10/07 03:50:55;;;;;;;6.77;4.60;;;;;;;16.75;78.82;100839.06;4997597;28;20243;-82
2023/10/07 03:53:31;;;;;;;4.77;4.27;;;;;;;16.80;78.80;100837.09;4997965;28;20230;-81
2023/10/07 03:55:58;;;;;;;6.13;4.80;;;;;;;16.76;78.79;100843.41;4998226;28;20229;-80
2023/10/07 03:58:27;;;;;;;6.37;5.73;;;;;;;16.78;78.81;100840.72;4981602;28;20233;-84
2023/10/07 04:00:54;;;;;;;6.87;5.80;;;;;;;16.68;79.97;100821.75;4978317;28;20228;-82
2023/10/07 04:03:23;;;;;;;7.93;6.70;;;;;;;16.50;82.33;100793.47;4979051;28;20215;-84
2023/10/07 04:05:50;;;;;;;8.63;6.80;;;;;;;16.49;85.17;100718.81;4980232;28;20208;-80
2023/10/07 04:08:18;;;;;;;7.50;6.83;;;;;;;16.48;86.67;100680.22;4980335;28;20213;-84
2023/10/07 04:10:45;;;;;;;7.93;7.30;;;;;;;16.10;89.37;100623.78;4980488;28;20228;-83
2023/10/07 04:13:21;;;;;;;9.33;8.47;;;;;;;15.95;90.63;100605.00;4980792;28;20208;-84
2023/10/07 04:15:51;;;;;;;9.03;8.23;;;;;;;16.18;90.57;100567.22;4981453;28;20225;-81
2023/10/07 04:18:23;;;;;;;8.70;8.00;;;;;;;16.16;91.87;100544.50;4980151;28;20212;-84
2023/10/07 04:20:58;;;;;;;8.80;7.97;;;;;;;16.22;91.34;100545.13;4979182;28;20752;-83
2023/10/07 04:23:25;;;;;;;9.07;8.33;;;;;;;16.19;91.29;100549.63;4978466;28;20207;-84
2023/10/07 04:25:55;;;;;;;8.87;8.07;;;;;;;16.12;91.28;100551.69;4979836;28;20207;-81
2023/10/07 04:28:23;;;;;;;8.43;7.80;;;;;;;16.21;90.83;100558.34;4979021;28;20213;-84
2023/10/07 04:30:53;;;;;;;8.77;8.10;;;;;;;16.25;89.89;100558.16;4979450;28;20322;-81
2023/10/07 04:33:25;;;;;;;8.40;7.70;;;;;;;16.22;89.67;100566.19;4980057;28;20683;-83
2023/10/07 04:36:01;;;;;;;11.23;9.47;;;;;;;16.00;91.01;100576.72;4979424;28;20232;-82
2023/10/07 04:38:52;;;;;;;9.13;8.33;;;;;;;16.06;90.67;100554.56;4982002;28;20239;-82
2023/10/07 04:41:32;;;;;;;9.73;8.83;;;;;;;16.05;90.67;100553.72;4981118;28;20232;-83
2023/10/07 04:44:20;;;;;;;11.27;10.17;;;;;;;16.04;91.22;100564.28;4980147;28;20208;-82
2023/10/07 04:46:55;;;;;;;10.67;9.80;;;;;;;16.05;91.37;100542.28;4980284;28;20730;-83
2023/10/07 04:49:26;;;;;;;14.70;10.13;;;;;;;16.09;90.80;100549.16;4979105;28;20669;-83
2023/10/07 04:51:58;;;;;;;12.40;11.07;;;;;;;16.05;91.11;100555.47;4980828;28;20247;-81
2023/10/07 04:54:25;;;;;;;12.90;11.60;;;;;;;15.83;91.79;100579.16;4980249;28;20606;-81
2023/10/07 04:56:54;;;;;;;12.73;11.60;;;;;;;15.87;92.43;100560.53;4978929;28;20239;-83
2023/10/07 04:59:21;;;;;;;13.13;12.07;;;;;;;15.87;92.13;100557.91;4980631;28;20212;-82
2023/10/07 05:01:55;;;;;;;14.53;13.53;;;;;;;15.76;93.29;100543.47;4980847;28;20228;-83
2023/10/07 05:04:24;;;;;;;14.70;13.40;;;;;;;15.88;93.12;100532.44;4980347;28;20220;-83
2023/10/07 05:06:51;;;;;;;14.90;13.67;;;;;;;15.85;93.18;100546.56;4980582;28;20263;-83
2023/10/07 05:09:21;;;;;;;14.07;12.97;;;;;;;16.01;92.27;100549.44;4979822;28;20637;-82
2023/10/07 05:11:47;;;;;;;14.97;13.83;;;;;;;15.99;92.55;100556.56;4980387;28;20312;-84
2023/10/07 05:14:17;;;;;;;14.37;13.23;;;;;;;16.06;92.20;100558.03;4980508;28;20246;-84
2023/10/07 05:16:46;;;;;;;15.70;14.50;;;;;;;15.75;93.57;100553.09;4980141;28;20261;-83
2023/10/07 05:19:19;;;;;;;16.60;15.10;;;;;;;15.71;95.21;100514.63;4978221;28;20299;-80
2023/10/07 05:21:47;;;;;;;16.50;15.27;;;;;;;15.83;94.74;100527.34;4979039;28;20259;-83
2023/10/07 05:24:17;;;;;;;15.13;13.87;;;;;;;15.94;94.32;100523.47;4978328;28;20219;-84
2023/10/07 05:26:45;;;;;;;16.23;14.97;;;;;;;15.94;93.84;100534.84;4978815;28;20204;-82
2023/10/07 05:29:12;;;;;;;16.63;15.20;;;;;;;16.01;93.65;100538.06;4980195;28;20208;-84
2023/10/07 05:31:39;;;;;;;15.37;14.07;;;;;;;15.91;94.21;100549.88;4980682;28;20232;-84
2023/10/07 05:34:06;;;;;;;16.73;15.30;;;;;;;15.98;94.05;100546.13;4979078;28;20216;-83
2023/10/07 05:36:33;;;;;;;15.87;14.33;;;;;;;15.91;94.95;100528.81;4978181;28;20242;-83
2023/10/07 05:39:00;;;;;;;17.17;15.70;;;;;;;15.98;94.85;100531.16;4977389;28;20598;-84
2023/10/07 05:41:28;;;;;;;16.07;14.87;;;;;;;15.94;95.06;100534.84;4977554;28;20322;-83
2023/10/07 05:43:56;;;;;;;18.60;17.07;;;;;;;15.98;94.86;100535.56;4979231;28;20266;-83
2023/10/07 05:46:22;;;;;;;18.47;17.00;;;;;;;15.71;96.15;100532.22;4980336;28;20201;-83
2023/10/07 05:48:51;;;;;;;19.17;17.80;;;;;;;15.57;98.61;100490.66;4979668;28;20219;-84
2023/10/07 05:51:18;;;;;;;19.30;17.70;;;;;;;15.78;98.08;100489.00;4980048;28;20236;-85
2023/10/07 05:53:48;;;;;;;19.13;17.70;;;;;;;15.76;98.62;100477.66;4978872;28;20216;-83
2023/10/07 05:56:15;;;;;;;20.17;18.07;;;;;;;15.67;98.77;100481.47;4978574;28;20225;-83
2023/10/07 05:58:43;;;;;;;20.73;18.90;;;;;;;15.82;97.98;100485.31;4980725;28;20215;-83
2023/10/07 06:01:12;;;;;;;20.40;18.80;;;;;;;15.91;97.68;100495.47;4981761;28;20291;-83
2023/10/07 06:03:39;;;;;;;20.73;19.27;;;;;;;15.75;98.15;100497.00;4982173;28;20226;-83
2023/10/07 06:06:06;;;;;;;19.63;17.80;;;;;;;15.88;98.02;100488.53;4981029;28;20211;-83
2023/10/07 06:08:33;;;;;;;20.10;18.40;;;;;;;15.82;98.26;100501.97;4980841;28;20239;-82
2023/10/07 06:11:01;;;;;;;20.67;18.97;;;;;;;15.75;99.11;100494.38;4979893;28;20234;-83
2023/10/07 06:13:29;;;;;;;20.07;18.27;;;;;;;15.84;98.45;100499.28;4993028;28;20212;-79
2023/10/07 06:15:56;;;;;;;21.77;20.17;;;;;;;15.66;99.79;100501.66;4992421;28;20207;-80
2023/10/07 06:18:24;;;;;;;20.77;19.17;;;;;;;15.87;98.93;100502.63;4992872;28;20205;-81
2023/10/07 06:20:51;;;;;;;22.33;20.53;;;;;;;15.79;98.84;100507.31;4992696;28;20228;-80
2023/10/07 06:23:19;;;;;;;22.77;20.80;;;;;;;15.67;99.56;100506.00;4991127;28;20214;-82
2023/10/07 06:25:48;;;;;;;24.73;22.10;;;;;;;15.73;100.00;100476.00;4990227;28;20226;-80
2023/10/07 06:28:25;;;;;;;23.93;21.67;;;;;;;15.51;100.00;100483.84;4988412;28;20244;-83
2023/10/07 06:30:56;;;;;;;22.03;20.33;;;;;;;15.49;100.00;100454.97;4980431;28;20294;-81
2023/10/07 06:33:26;;;;;;;22.67;20.67;;;;;;;15.58;100.00;100464.28;4979763;28;20626;-83
2023/10/07 06:35:53;;;;;;;22.03;20.27;;;;;;;15.64;100.00;100478.97;4979802;28;20746;-82
2023/10/07 06:38:22;;;;;;;21.57;19.73;;;;;;;15.83;100.00;100484.38;4981101;28;20242;-81
2023/10/07 06:40:49;;;;;;;21.27;19.37;;;;;;;15.91;99.82;100500.72;4980904;28;20227;-82
2023/10/07 06:43:15;;;;;;;22.57;20.87;;;;;;;15.92;99.45;100510.34;4980876;28;20228;-82
2023/10/07 06:45:44;;;;;;;22.17;20.20;;;;;;;15.86;99.67;100518.50;4979178;28;20675;-80
2023/10/07 06:48:12;;;;;;;22.47;20.33;;;;;;;15.72;100.00;100511.09;4981715;28;20594;-81
2023/10/07 06:50:41;;;;;;;23.67;21.33;;;;;;;15.81;100.00;100502.88;4982123;28;20303;-82
2023/10/07 06:53:11;;;;;;;23.17;21.20;;;;;;;15.84;100.00;100507.16;4981190;28;20212;-82
2023/10/07 06:55:41;;;;;;;21.80;19.53;;;;;;;15.99;99.57;100508.31;4981526;28;20683;-81
2023/10/07 06:58:08;;;;;;;22.63;20.23;;;;;;;15.95;99.93;100519.88;4980853;28;20616;-83
2023/10/07 07:00:47;;;;;;;23.57;21.33;;;;;;;15.95;99.48;100520.75;4980983;28;20256;-82
2023/10/07 07:03:14;;;;;;;25.50;21.83;;;;;;;15.97;99.59;100526.81;4979848;28;20211;-81
2023/10/07 07:05:41;;;;;;;22.80;20.37;;;;;;;16.01;99.51;100530.16;4980242;28;20204;-82
2023/10/07 07:08:22;;;;;;;24.10;22.20;;;;;;;16.01;99.45;100533.66;4979980;28;20198;-79
2023/10/07 07:10:50;;;;;;;24.70;22.10;;;;;;;16.07;99.48;100532.56;4980433;28;20225;-81
2023/10/07 07:13:18;;;;;;;24.63;21.47;;;;;;;15.79;100.00;100515.22;4979753;28;20800;-81
2023/10/07 07:15:57;;;;;;;25.63;23.23;;;;;;;15.81;100.00;100492.34;4980266;28;20241;-83
2023/10/07 07:18:25;;;;;;;26.33;22.37;;;;;;;15.98;100.00;100486.41;4978537;28;20223;-83
2023/10/07 07:21:00;;;;;;;30.97;23.43;;;;;;;16.08;100.00;100502.69;4978002;28;20224;-83
2023/10/07 07:23:35;;;;;;;27.03;24.27;;;;;;;16.02;100.00;100501.16;4980426;28;20280;-83
2023/10/07 07:26:06;;;;;;;25.03;22.57;;;;;;;16.22;100.00;100518.78;4979589;28;20258;-85
2023/10/07 07:28:34;;;;;;;25.83;23.23;;;;;;;16.20;99.98;100532.94;4980065;28;20203;-87
2023/10/07 07:31:00;;;;;;;26.50;24.10;;;;;;;16.19;100.00;100531.19;4984941;28;20221;-86
2023/10/07 07:33:32;;;;;;;26.00;23.50;;;;;;;16.25;99.55;100541.47;4986326;28;20200;-87
2023/10/07 07:36:03;;;;;;;27.37;23.10;;;;;;;16.09;100.00;100533.34;4984521;28;20657;-84
2023/10/07 07:38:30;;;;;;;26.73;24.00;;;;;;;16.15;100.00;100541.00;4990395;28;20235;-81
2023/10/07 07:41:09;;;;;;;28.63;24.27;;;;;;;16.13;100.00;100542.84;4991376;28;20231;-83
2023/10/07 07:43:37;;;;;;;26.87;24.13;;;;;;;16.12;100.00;100530.59;4989885;28;20295;-84
2023/10/07 07:46:26;;;;;;;26.30;23.60;;;;;;;16.04;100.00;100516.91;4986187;28;20204;-82
2023/10/07 07:48:53;;;;;;;31.43;24.30;;;;;;;16.18;100.00;100522.47;4988471;28;20255;-82
2023/10/07 07:51:24;;;;;;;27.37;24.40;;;;;;;16.07;100.00;100507.09;4986363;28;20922;-82
2023/10/07 07:53:51;;;;;;;27.80;24.73;;;;;;;16.25;100.00;100499.34;4986601;28;20212;-82
2023/10/07 07:56:18;;;;;;;26.57;23.60;;;;;;;16.32;100.00;100521.88;4986222;28;20215;-83
2023/10/07 07:58:47;;;;;;;25.77;23.10;;;;;;;16.43;100.00;100524.06;4981730;28;20702;-79
2023/10/07 08:01:16;;;;;;;25.53;22.87;;;;;;;16.38;100.00;100524.25;4985774;28;20227;-83
2023/10/07 08:03:42;;;;;;;27.70;23.17;;;;;;;16.47;100.00;100529.16;4986401;28;20241;-82
2023/10/07 08:06:12;;;;;;;31.93;24.83;;;;;;;16.37;100.00;100532.22;4989027;28;20204;-81
2023/10/07 08:08:40;;;;;;;24.97;22.37;;;;;;;16.45;100.00;100533.63;4983861;28;20233;-83
2023/10/07 08:11:07;;;;;;;27.47;24.73;;;;;;;16.52;100.00;100525.47;4981358;28;20239;-84
2023/10/07 08:13:33;;;;;;;26.37;23.80;;;;;;;16.57;99.83;100529.63;4979195;28;20246;-82
2023/10/07 08:16:05;;;;;;;25.27;23.03;;;;;;;16.58;99.98;100517.31;4979872;28;20205;-85
2023/10/07 08:18:32;;;;;;;26.83;24.23;;;;;;;16.70;98.97;100519.41;4977620;28;20220;-83
2023/10/07 08:21:07;;;;;;;29.97;24.43;;;;;;;16.64;99.60;100519.66;4982341;28;20232;-82
2023/10/07 08:23:36;;;;;;;25.33;22.83;;;;;;;16.73;99.51;100528.94;4988145;28;20319;-82
2023/10/07 08:26:10;;;;;;;25.57;22.60;;;;;;;16.71;99.35;100533.44;4988751;28;20214;-80
2023/10/07 08:28:42;;;;;;;26.50;22.37;;;;;;;16.68;100.00;100524.72;4989102;28;20208;-80
2023/10/07 08:31:16;;;;;;;28.33;23.57;;;;;;;16.70;100.00;100529.09;4988244;28;20235;-81
2023/10/07 08:33:47;;;;;;;30.97;23.60;;;;;;;16.69;100.00;100533.53;4988188;28;20219;-80
2023/10/07 08:36:15;;;;;;;26.03;23.60;;;;;;;16.68;100.00;100544.97;4989603;28;20671;-82
2023/10/07 08:38:44;;;;;;;25.70;23.00;;;;;;;16.68;100.00;100540.56;4988819;28;20259;-80
2023/10/07 08:41:16;;;;;;;29.30;22.20;;;;;;;16.75;99.94;100538.53;4988706;28;20227;-82
2023/10/07 08:43:45;;;;;;;24.97;22.47;;;;;;;16.78;99.48;100543.66;4988093;28;20278;-82
2023/10/07 08:46:16;;;;;;;27.80;22.77;;;;;;;16.80;99.56;100535.69;4989253;28;20215;-82
2023/10/07 08:48:49;;;;;;;26.63;23.63;;;;;;;16.80;99.84;100535.69;4988719;28;20215;-80
2023/10/07 08:51:21;;;;;;;23.87;21.53;;;;;;;16.81;99.91;100521.59;4988614;28;20223;-82
2023/10/07 08:53:48;;;;;;;23.97;21.67;;;;;;;16.73;100.00;100518.41;4988870;28;20220;-81
2023/10/07 08:56:17;;;;;;;28.93;22.67;;;;;;;16.61;100.00;100514.50;4988933;28;20210;-80
2023/10/07 08:58:44;;;;;;;26.47;23.60;;;;;;;16.67;100.00;100507.22;4988583;28;20269;-82
2023/10/07 09:01:17;;;;;;;25.37;22.60;;;;;;;16.66;100.00;100496.75;4989168;28;20235;-82
2023/10/07 09:03:47;;;;;;;27.27;23.57;;;;;;;16.71;100.00;100499.16;4989381;28;20219;-82
2023/10/07 09:06:14;;;;;;;24.93;22.40;;;;;;;16.68;100.00;100479.06;4988535;28;20240;-82
2023/10/07 09:08:41;;;;;;;24.70;21.10;;;;;;;16.66;100.00;100465.97;4989870;28;20204;-81
2023/10/07 09:11:08;;;;;;;28.07;21.97;;;;;;;16.74;100.00;100459.50;4989533;28;20797;-83
2023/10/07 09:13:38;;;;;;;25.90;21.57;;;;;;;16.67;100.00;100465.06;4988635;28;20215;-82
2023/10/07 09:16:07;;;;;;;24.37;21.90;;;;;;;16.79;100.00;100473.34;4989044;28;20232;-81
2023/10/07 09:18:39;;;;;;;27.53;22.60;;;;;;;16.87;100.00;100489.72;4987589;28;20227;-80
2023/10/07 09:21:09;;;;;;;31.83;22.87;;;;;;;16.85;100.00;100488.94;4987673;28;20279;-80
2023/10/07 09:23:43;;;;;;;25.37;20.97;;;;;;;16.93;100.00;100483.31;4988157;28;20255;-83
2023/10/07 09:26:21;;;;;;;28.43;21.13;;;;;;;16.94;100.00;100490.28;4987311;28;20214;-81
2023/10/07 09:28:58;;;;;;;22.70;20.33;;;;;;;16.99;100.00;100499.72;4986682;28;20754;-81
2023/10/07 09:31:26;;;;;;;21.97;19.53;;;;;;;16.98;100.00;100511.16;4987708;28;20232;-80
2023/10/07 09:33:54;;;;;;;21.37;18.47;;;;;;;17.07;100.00;100502.00;4986882;28;20239;-82
2023/10/07 09:36:33;;;;;;;29.20;20.50;;;;;;;17.04;100.00;100505.63;4986421;28;20208;-82
2023/10/07 09:39:16;;;;;;;22.20;19.97;;;;;;;17.15;99.82;100496.38;4986818;28;20231;-82
2023/10/07 09:41:44;;;;;;;21.37;19.37;;;;;;;17.18;99.15;100514.69;4986065;28;20314;-82
2023/10/07 09:44:26;;;;;;;23.83;19.20;;;;;;;17.07;99.78;100491.47;4985646;28;20212;-81
2023/10/07 09:46:52;;;;;;;24.10;18.97;;;;;;;17.09;99.95;100473.78;4981618;28;20208;-83
2023/10/07 09:49:20;;;;;;;22.77;20.40;;;;;;;17.20;99.01;100492.59;4985262;28;20207;-82
2023/10/07 09:51:50;;;;;;;21.43;19.20;;;;;;;17.17;98.63;100508.56;4987658;28;20254;-85
2023/10/07 09:54:47;;;;;;;21.77;19.00;;;;;;;17.24;97.89;100517.06;4988567;28;20256;-84
2023/10/07 09:57:29;;;;;;;21.10;18.23;;;;;;;17.47;98.11;100516.00;4987586;28;20236;-83
2023/10/07 10:03:04;;;;;;;20.30;18.27;;;;;;;17.51;96.32;100541.34;4989489;28;20235;-81
2023/10/07 10:05:49;;;;;;;19.43;17.70;;;;;;;17.59;96.55;100546.25;4987323;28;20208;-82
2023/10/07 10:08:44;;;;;;;19.47;17.57;;;;;;;17.67;96.17;100541.47;4987224;28;20229;-81
2023/10/07 10:11:30;;;;;;;20.53;18.50;;;;;;;17.51;96.16;100558.97;4990007;28;20236;-81
2023/10/07 10:14:14;;;;;;;18.37;16.03;;;;;;;17.60;96.25;100554.13;4990477;28;20220;-82
2023/10/07 10:16:44;;;;;;;18.90;16.93;;;;;;;17.70;95.76;100559.81;4992200;28;20213;-82
2023/10/07 10:19:22;;;;;;;18.47;16.63;;;;;;;17.71;95.01;100574.72;4989343;28;20228;-82
2023/10/07 10:21:48;;;;;;;19.03;16.83;;;;;;;17.75;95.19;100596.56;4991513;28;20762;-82
2023/10/07 10:24:16;;;;;;;19.53;17.53;;;;;;;17.72;95.23;100579.09;4994557;28;20208;-81
2023/10/07 10:26:44;;;;;;;17.40;15.90;;;;;;;17.86;94.43;100597.81;4995175;28;20236;-81
2023/10/07 10:29:16;;;;;;;19.60;16.93;;;;;;;17.83;94.45;100603.22;4993530;28;20216;-82
2023/10/07 10:31:51;;;;;;;16.80;15.27;;;;;;;17.93;94.46;100600.16;4994903;28;20233;-81
2023/10/07 10:34:20;;;;;;;17.03;15.63;;;;;;;17.98;93.68;100606.94;4993924;28;20207;-82
2023/10/07 10:36:49;;;;;;;16.63;15.07;;;;;;;18.09;93.32;100617.00;4994787;28;20200;-82
2023/10/07 10:39:22;;;;;;;16.13;14.53;;;;;;;18.19;92.73;100620.91;4995625;28;20224;-82
2023/10/07 10:41:49;;;;;;;15.40;13.97;;;;;;;18.12;92.23;100634.50;4994729;28;20227;-82
2023/10/07 10:44:17;;;;;;;15.97;14.30;;;;;;;18.14;92.35;100628.22;4994629;28;20209;-81
2023/10/07 10:46:46;;;;;;;20.67;14.43;;;;;;;18.14;91.85;100652.00;4995511;28;20213;-82
2023/10/07 10:49:16;;;;;;;15.63;14.23;;;;;;;18.27;92.06;100644.31;4995633;28;20672;-83
2023/10/07 10:51:45;;;;;;;15.13;13.90;;;;;;;18.32;91.69;100644.97;4994409;28;20237;-82
2023/10/07 10:54:17;;;;;;;17.23;13.77;;;;;;;18.24;90.85;100657.69;4994243;28;20228;-82
2023/10/07 10:56:51;;;;;;;14.70;13.33;;;;;;;18.36;91.48;100649.19;4994763;28;20206;-83
2023/10/07 10:59:18;;;;;;;14.77;13.40;;;;;;;18.69;91.28;100661.72;4993882;28;20220;-81
2023/10/07 11:01:49;;;;;;;16.53;14.97;;;;;;;18.77;90.18;100685.09;4995092;28;20252;-83
2023/10/07 11:04:20;;;;;;;15.40;14.27;;;;;;;18.79;87.90;100730.84;4994317;28;20274;-82
2023/10/07 11:06:50;;;;;;;15.77;14.47;;;;;;;18.67;87.03;100742.88;4994232;28;20212;-82
2023/10/07 11:09:25;;;;;;;13.83;12.50;;;;;;;18.61;87.10;100773.13;4994947;28;20202;-81
2023/10/07 11:11:52;;;;;;;14.43;13.13;;;;;;;18.56;87.09;100764.53;4994449;28;20259;-81
2023/10/07 11:14:20;;;;;;;16.43;14.93;;;;;;;18.33;88.47;100743.59;4994180;28;20215;-82
2023/10/07 11:16:48;;;;;;;15.97;14.73;;;;;;;18.39;88.79;100738.91;4994556;28;20478;-83
2023/10/07 11:19:16;;;;;;;16.77;15.43;;;;;;;18.29;88.90;100737.59;4994819;28;20232;-81
2023/10/07 11:21:44;;;;;;;18.13;16.37;;;;;;;18.35;88.72;100728.53;4994097;28;20231;-83
2023/10/07 11:24:23;;;;;;;18.20;16.63;;;;;;;18.32;89.46;100713.69;4994915;28;20239;-82
2023/10/07 11:26:51;;;;;;;16.93;15.57;;;;;;;18.41;89.54;100722.97;4994848;28;20673;-82
2023/10/07 11:29:18;;;;;;;17.10;15.67;;;;;;;18.50;89.00;100714.59;4996054;28;20213;-82
2023/10/07 11:31:46;;;;;;;17.77;16.13;;;;;;;18.49;89.50;100718.16;4995619;28;20261;-81
2023/10/07 11:34:13;;;;;;;17.80;16.27;;;;;;;18.43;88.60;100718.47;4999426;28;20192;-79
2023/10/07 11:36:45;;;;;;;17.40;16.03;;;;;;;18.55;89.45;100704.69;5000418;28;20188;-82